Airfield :
LOGIN :

Register | Disclaimer

   EN    FR    IT 

 










Legend :    VFR   Marginal VFR   IFR   Intensive IFR   Very Intensive IFR
Visi :
Ceiling :
>= 8 km
>= 3000ft
5 to 8 km
1000 to 3000 ft
1500m to 5 km
500 to 1000 ft
800 to 1500m
200 to 500 ft
< 800m
< 200 ft
Symbols :   Thunderstorms  Fog  Heavy snow  Heavy precipitations  Wind > 20 kt
SIGMETs :     Misc.  Thunderstorms  Icing  Turbulence  Mountain Waves  Volcanic Ashes







- Airport Elevation : 39 ft
- IATA code : TRS


LIPQ - Friuli Venezia Giulia Apt. Trieste

CURRENT METAR :
  • 191520Z 23008KT CAVOK 31/18 Q1012

EXPIRED METARs :
  • 191450Z 24008KT CAVOK 31/18 Q1012
  • 191350Z 23008KT 200V260 CAVOK 32/16 Q1012
  • 191320Z 22008KT 180V250 CAVOK 32/16 Q1012
  • 191250Z 24007KT 190V270 CAVOK 32/17 Q1012
  • 191220Z 24006KT 180V280 CAVOK 32/17 Q1012

TAF TAF LIPQ
Valid from the 19 at 12:00 until the 20 at 12:00 UTC


191100Z 1912/2012 20010KT CAVOK
BECMG 1916/1918 VRB05KT
BECMG 2010/2012 20010KT
No reported NOTAMs for that airfield.



MET'MAP, your aeronautical weather chart ! - Copyright ORBIFLY December 2007 - Disclaimer

ORBIFLY MET'MAP TEAM :

Programming & Development : Alexandra Zaïnal
Concept & Development : Baudouin d'Aumeries
Co-Development & Prog : Marc-Olivier Méhu
Technical & hardware support : Manuel Goepfert

Contact : metmap@orbifly.com




SOURCES & CREDITS :

   NOAA